Time;durP1;ratioP1;P1;durP2;ratioP2;P2;SDS_P1;SDS_P2;PMS_P1;PMS_P2;Temp;Humidity;BMP_temperature;BMP_pressure;BME280_temperature;BME280_humidity;BME280_pressure;Samples;Min_cycle;Max_cycle;Signal;HPM_P1;HPM_P2
2021/05/14 00:01:39;;;;;;;;;4.00;4.00;;;;;20.47;35.23;98891.06;4996498;28;8789;-48
2021/05/14 00:04:04;;;;;;;;;3.75;3.75;;;;;20.45;35.19;98888.69;4995282;28;9498;-49
2021/05/14 00:06:30;;;;;;;;;5.00;5.00;;;;;20.47;35.03;98891.06;4993497;28;8941;-49
2021/05/14 00:08:55;;;;;;;;;4.25;4.25;;;;;20.46;35.02;98892.25;4977851;28;8779;-49
2021/05/14 00:11:20;;;;;;;;;3.00;3.00;;;;;20.51;35.09;98883.72;4984023;28;8827;-49
2021/05/14 00:13:46;;;;;;;;;4.50;4.50;;;;;20.42;35.10;98892.13;4980484;28;8791;-49
2021/05/14 00:16:11;;;;;;;;;5.00;5.00;;;;;20.40;35.27;98889.75;4972553;28;9642;-49
2021/05/14 00:18:36;;;;;;;;;4.00;4.00;;;;;20.61;35.04;98873.09;4992721;28;8794;-49
2021/05/14 00:21:02;;;;;;;;;4.50;4.50;;;;;20.69;35.22;98889.72;4993888;28;9504;-49
2021/05/14 00:23:28;;;;;;;;;4.00;4.00;;;;;20.50;35.13;98885.69;4991980;28;8873;-49
2021/05/14 00:25:53;;;;;;;;;4.00;4.00;;;;;20.42;35.23;98890.19;5001988;28;8866;-49
2021/05/14 00:28:18;;;;;;;;;5.00;5.00;;;;;20.41;35.25;98894.06;4984286;28;9896;-49
2021/05/14 00:30:44;;;;;;;;;4.25;4.25;;;;;20.39;35.00;98882.69;4978331;28;8901;-49
2021/05/14 00:33:09;;;;;;;;;5.00;5.00;;;;;20.38;35.04;98883.81;4988088;28;9590;-48
2021/05/14 00:35:34;;;;;;;;;4.00;4.00;;;;;20.39;35.09;98882.69;4994942;28;9394;-49
2021/05/14 00:38:00;;;;;;;;;4.00;4.00;;;;;20.39;35.01;98887.38;4983802;28;8799;-49
2021/05/14 00:40:25;;;;;;;;;4.25;4.25;;;;;20.37;35.02;98884.19;4980888;28;8926;-49
2021/05/14 00:42:50;;;;;;;;;4.00;4.00;;;;;20.32;35.07;98871.53;4975303;28;8795;-49
2021/05/14 00:45:16;;;;;;;;;3.00;3.00;;;;;20.36;34.97;98886.13;4981274;28;8810;-50
2021/05/14 00:47:42;;;;;;;;;3.00;3.00;;;;;20.34;34.97;98877.47;4997491;28;8797;-48
2021/05/14 00:50:08;;;;;;;;;4.00;4.00;;;;;20.43;34.97;98883.56;4997587;28;8803;-49
2021/05/14 00:52:33;;;;;;;;;4.40;4.00;;;;;20.66;34.74;98874.75;4980104;28;10013;-49
2021/05/14 00:54:59;;;;;;;;;4.25;4.25;;;;;20.52;34.91;98893.56;4979611;28;8783;-48
2021/05/14 00:57:25;;;;;;;;;4.00;4.00;;;;;20.39;34.88;98881.88;4982417;28;8806;-49
2021/05/14 00:59:51;;;;;;;;;4.40;4.40;;;;;20.33;35.13;98875.06;4993407;28;8932;-49
2021/05/14 01:02:18;;;;;;;;;4.75;4.75;;;;;20.32;35.11;98879.75;5001029;28;8854;-48
2021/05/14 01:04:44;;;;;;;;;4.40;4.40;;;;;20.26;34.95;98872.16;4993422;28;9532;-49
2021/05/14 01:07:12;;;;;;;;;4.00;4.00;;;;;20.27;34.92;98868.28;4999818;28;8781;-48
2021/05/14 01:09:42;;;;;;;;;4.40;4.40;;;;;20.29;34.91;98874.97;5002291;28;9596;-48
2021/05/14 01:12:09;;;;;;;;;3.00;3.00;;;;;20.25;35.01;98868.63;4995595;28;8788;-48
2021/05/14 01:14:34;;;;;;;;;3.40;3.40;;;;;20.22;35.00;98870.09;4978638;28;10559;-49
2021/05/14 01:17:00;;;;;;;;;6.00;5.75;;;;;20.22;34.93;98883.78;4995799;28;8844;-49
2021/05/14 01:19:25;;;;;;;;;4.00;4.00;;;;;20.22;34.84;98888.47;4999196;28;8918;-49
2021/05/14 01:21:51;;;;;;;;;4.75;4.75;;;;;20.21;34.79;98882.22;4987638;28;8817;-49
2021/05/14 01:24:17;;;;;;;;;4.00;4.00;;;;;20.47;34.90;98877.38;4982080;28;8796;-49
2021/05/14 01:26:42;;;;;;;;;3.00;3.00;;;;;20.46;35.05;98879.34;4998393;28;8818;-50
2021/05/14 01:29:09;;;;;;;;;4.00;4.00;;;;;20.29;35.05;98874.97;4996406;28;8854;-49
2021/05/14 01:31:35;;;;;;;;;4.20;4.20;;;;;20.04;35.01;98860.63;4980329;28;8780;-49
2021/05/14 01:34:00;;;;;;;;;5.00;5.00;;;;;20.17;35.12;98878.56;4976685;28;8849;-49
2021/05/14 01:36:26;;;;;;;;;5.00;4.50;;;;;20.02;35.15;98860.97;4977701;28;9665;-49
2021/05/14 01:38:51;;;;;;;;;3.80;3.80;;;;;20.16;35.06;98887.16;4978352;28;8830;-48
2021/05/14 01:41:17;;;;;;;;;4.00;4.00;;;;;20.13;34.99;98885.13;4999262;28;8809;-47
2021/05/14 01:43:42;;;;;;;;;4.00;4.00;;;;;19.97;34.85;98869.44;4995267;28;8796;-48
2021/05/14 01:46:08;;;;;;;;;4.00;4.00;;;;;20.12;34.97;98886.25;4997274;28;8860;-47
2021/05/14 01:48:34;;;;;;;;;5.00;5.00;;;;;20.10;34.88;98883.88;4986063;28;8815;-47
2021/05/14 01:51:15;;;;;;;;;4.00;4.00;;;;;20.10;34.86;98889.34;4983774;28;10909;-47
2021/05/14 01:53:40;;;;;;;;;4.60;4.60;;;;;20.08;34.88;98883.41;4993968;28;11500;-47
2021/05/14 01:56:05;;;;;;;;;4.00;4.00;;;;;20.13;35.22;98882.38;4975433;28;8805;-48
2021/05/14 01:58:30;;;;;;;;;4.00;4.00;;;;;20.44;34.72;98889.84;4997883;28;8820;-47
2021/05/14 02:00:56;;;;;;;;;4.00;4.00;;;;;20.20;35.06;98888.84;4984528;28;8963;-47
2021/05/14 02:03:21;;;;;;;;;4.75;4.75;;;;;20.13;34.93;98894.13;4984201;28;8812;-48
2021/05/14 02:05:46;;;;;;;;;4.00;3.75;;;;;20.08;35.27;98894.38;4992903;28;8791;-48
2021/05/14 02:08:12;;;;;;;;;5.00;5.00;;;;;20.05;35.16;98893.16;4977556;28;8832;-47
2021/05/14 02:10:37;;;;;;;;;4.00;4.00;;;;;20.05;35.02;98892.31;4973673;28;8819;-47
2021/05/14 02:13:02;;;;;;;;;4.00;4.00;;;;;20.04;35.03;98897.00;4988861;28;8795;-48
2021/05/14 02:15:28;;;;;;;;;3.00;3.00;;;;;20.04;35.05;98888.81;4996247;28;8784;-47
2021/05/14 02:17:53;;;;;;;;;3.75;3.75;;;;;20.03;34.88;98887.22;4997131;28;8802;-48
2021/05/14 02:20:18;;;;;;;;;3.25;3.25;;;;;20.03;34.89;98883.66;4996461;28;8882;-48
2021/05/14 02:22:45;;;;;;;;;4.00;4.00;;;;;20.02;34.85;98882.09;4998477;28;8800;-47
2021/05/14 02:25:10;;;;;;;;;4.00;4.00;;;;;20.01;35.01;98885.97;4993065;28;8835;-47
2021/05/14 02:27:36;;;;;;;;;5.00;5.00;;;;;19.99;34.92;98878.09;4999613;28;8805;-47
2021/05/14 02:30:04;;;;;;;;;3.75;3.75;;;;;20.24;34.96;98877.97;4994129;28;8843;-47
2021/05/14 02:32:29;;;;;;;;;4.20;4.20;;;;;20.30;34.91;98881.25;4994488;28;8894;-47
2021/05/14 02:34:55;;;;;;;;;5.00;5.00;;;;;20.13;34.78;98874.94;4997982;28;8927;-47
2021/05/14 02:37:20;;;;;;;;;3.75;3.75;;;;;20.04;35.00;98874.31;4978978;28;8832;-48
2021/05/14 02:39:46;;;;;;;;;3.00;3.00;;;;;20.00;35.02;98874.22;4989727;28;8785;-47
2021/05/14 02:42:11;;;;;;;;;4.00;4.00;;;;;19.98;35.04;98882.00;4988270;28;8791;-47
2021/05/14 02:44:37;;;;;;;;;4.00;4.00;;;;;19.99;35.06;98877.31;4976649;28;8809;-49
2021/05/14 02:47:03;;;;;;;;;4.00;4.00;;;;;19.98;35.06;98879.25;4980128;28;8823;-49
2021/05/14 02:49:28;;;;;;;;;4.40;4.40;;;;;19.94;34.89;98867.41;4998771;28;9013;-50
2021/05/14 02:51:53;;;;;;;;;4.75;4.75;;;;;19.96;34.94;98876.06;4989511;28;8781;-50
2021/05/14 02:54:19;;;;;;;;;3.75;3.75;;;;;19.91;35.04;98870.03;4985590;28;8873;-49
2021/05/14 02:56:44;;;;;;;;;4.00;4.00;;;;;19.96;34.90;98878.00;5002147;28;8929;-49
2021/05/14 02:59:10;;;;;;;;;3.75;3.75;;;;;19.95;34.75;98874.47;5001560;28;8849;-49
2021/05/14 03:01:35;;;;;;;;;4.75;4.00;;;;;19.96;34.96;98884.25;4997857;28;8812;-47
2021/05/14 03:04:01;;;;;;;;;4.00;4.00;;;;;20.28;34.77;98872.59;4999318;28;8934;-47
2021/05/14 03:06:27;;;;;;;;;3.60;3.60;;;;;20.16;34.75;98877.00;4999185;28;8787;-48
2021/05/14 03:08:53;;;;;;;;;4.80;4.80;;;;;20.02;34.96;98882.09;4996988;28;8850;-47
2021/05/14 03:11:18;;;;;;;;;4.00;4.00;;;;;19.96;35.02;98884.25;5003297;28;8947;-47
2021/05/14 03:13:43;;;;;;;;;5.00;3.75;;;;;19.94;34.94;98880.31;4999957;28;8792;-47
2021/05/14 03:16:09;;;;;;;;;4.00;4.00;;;;;19.78;35.24;98861.09;4996442;28;8804;-47
2021/05/14 03:18:34;;;;;;;;;4.00;4.00;;;;;19.89;35.07;98875.06;4986807;28;8857;-47
2021/05/14 03:21:00;;;;;;;;;3.75;3.75;;;;;19.90;34.96;98876.69;4984400;28;8870;-47
2021/05/14 03:23:26;;;;;;;;;5.25;5.00;;;;;19.88;34.92;98871.56;4998606;28;8837;-47
2021/05/14 03:25:51;;;;;;;;;4.60;4.00;;;;;19.86;35.06;98865.63;5002438;28;8901;-47
2021/05/14 03:28:16;;;;;;;;;3.25;3.25;;;;;19.88;34.85;98866.06;4982609;28;8795;-47
2021/05/14 03:30:42;;;;;;;;;3.00;3.00;;;;;19.84;34.98;98859.69;4989081;28;8812;-47
2021/05/14 03:33:08;;;;;;;;;3.20;3.20;;;;;19.89;34.93;98866.88;4992183;28;8797;-47
2021/05/14 03:35:33;;;;;;;;;4.00;4.00;;;;;19.90;34.97;98830.94;4980722;28;8814;-48
2021/05/14 03:37:59;;;;;;;;;4.00;4.00;;;;;20.24;34.59;98847.84;4999621;28;8875;-48
2021/05/14 03:40:36;;;;;;;;;4.00;4.00;;;;;19.93;34.80;98822.03;4982901;28;9729;-47
2021/05/14 03:43:03;;;;;;;;;4.00;4.00;;;;;19.93;35.04;98857.63;4994889;28;8812;-47
2021/05/14 03:45:28;;;;;;;;;4.00;4.00;;;;;19.89;35.00;98843.03;4997973;28;8885;-47
2021/05/14 03:47:58;;;;;;;;;4.25;4.25;;;;;19.86;35.05;98849.22;4998906;28;8808;-47
2021/05/14 03:50:27;;;;;;;;;5.00;4.80;;;;;19.84;35.14;98848.75;4996473;28;8798;-47
2021/05/14 03:52:53;;;;;;;;;4.00;4.00;;;;;19.83;35.02;98856.16;4980933;28;8808;-48
2021/05/14 03:55:19;;;;;;;;;4.00;4.00;;;;;19.82;34.85;98848.31;4980187;28;8823;-47
2021/05/14 03:57:45;;;;;;;;;4.00;4.00;;;;;19.81;35.03;98863.16;4978883;28;8828;-48
2021/05/14 04:00:12;;;;;;;;;4.50;4.50;;;;;19.81;34.96;98871.34;4978254;28;9476;-47
2021/05/14 04:02:37;;;;;;;;;4.00;4.00;;;;;19.80;35.08;98878.75;4979423;28;11688;-48
2021/05/14 04:05:03;;;;;;;;;4.25;4.25;;;;;19.79;34.93;98876.38;4981758;28;8818;-47
2021/05/14 04:07:28;;;;;;;;;3.00;3.00;;;;;19.79;34.88;98887.34;4995292;28;8947;-48
2021/05/14 04:10:06;;;;;;;;;3.00;3.00;;;;;20.11;34.69;98888.19;5000390;28;9036;-48
2021/05/14 04:14:59;;;;;;;;;4.00;4.00;;;;;19.87;35.01;98891.84;4997276;28;8931;-47
2021/05/14 04:17:24;;;;;;;;;3.75;3.75;;;;;19.80;34.98;98883.44;4999129;28;9054;-47
2021/05/14 04:19:49;;;;;;;;;4.00;4.00;;;;;19.79;35.10;98890.06;4999062;28;9958;-48
2021/05/14 04:22:15;;;;;;;;;5.00;4.50;;;;;19.80;35.04;98886.16;4998210;28;8822;-47
2021/05/14 04:24:40;;;;;;;;;4.25;4.25;;;;;19.76;35.03;98875.13;4998918;28;8788;-47
2021/05/14 04:27:05;;;;;;;;;3.25;3.25;;;;;19.78;34.95;98891.19;4999279;28;8784;-47
2021/05/14 04:29:31;;;;;;;;;4.25;4.25;;;;;19.67;34.99;98868.97;4996199;28;8815;-48
2021/05/14 04:31:56;;;;;;;;;4.00;4.00;;;;;19.77;35.00;98886.84;4998841;28;8832;-47
2021/05/14 04:34:21;;;;;;;;;3.25;3.25;;;;;19.75;35.17;98876.28;4998331;28;9590;-47
2021/05/14 04:36:47;;;;;;;;;5.00;5.00;;;;;19.76;35.05;98874.34;4982777;28;8795;-48
2021/05/14 04:39:13;;;;;;;;;4.00;4.00;;;;;19.67;34.84;98861.56;4977134;28;8799;-47
2021/05/14 04:41:39;;;;;;;;;4.00;4.00;;;;;19.94;34.97;98872.88;4979285;28;11462;-48
2021/05/14 04:44:04;;;;;;;;;5.00;5.00;;;;;20.13;34.66;98869.47;4977038;28;11526;-47
2021/05/14 04:46:30;;;;;;;;;3.80;3.80;;;;;19.92;34.99;98863.44;4995380;28;8823;-47
2021/05/14 04:48:55;;;;;;;;;4.00;3.75;;;;;19.83;34.96;98866.31;4998555;28;8823;-47
2021/05/14 04:51:21;;;;;;;;;4.00;4.00;;;;;19.80;34.95;98872.50;4991242;28;8796;-47
2021/05/14 04:53:47;;;;;;;;;4.25;4.25;;;;;19.65;35.04;98846.66;4975435;28;8803;-47
2021/05/14 04:56:14;;;;;;;;;4.00;4.00;;;;;19.77;34.98;98864.97;4980436;28;8815;-47
2021/05/14 04:58:41;;;;;;;;;4.00;4.00;;;;;19.76;34.99;98853.22;4995439;28;9575;-48
2021/05/14 05:01:07;;;;;;;;;3.80;3.80;;;;;19.67;34.88;98847.09;4996071;28;9543;-47
2021/05/14 05:03:33;;;;;;;;;5.00;5.00;;;;;19.76;34.89;98866.13;4998366;28;8812;-47
2021/05/14 05:05:58;;;;;;;;;3.00;3.00;;;;;19.76;34.93;98874.34;4991262;28;8790;-47
2021/05/14 05:08:23;;;;;;;;;3.50;3.50;;;;;19.74;34.99;98866.47;4976045;28;10650;-47
2021/05/14 05:10:49;;;;;;;;;3.25;3.25;;;;;19.74;34.98;98871.94;4979142;28;8811;-48
2021/05/14 05:13:15;;;;;;;;;3.00;3.00;;;;;19.74;35.00;98876.63;4995936;28;8928;-48
2021/05/14 05:15:41;;;;;;;;;5.00;5.00;;;;;19.98;34.74;98871.06;4986844;28;9472;-47
2021/05/14 05:18:07;;;;;;;;;4.75;4.75;;;;;19.95;35.12;98877.22;4976470;28;8799;-48
2021/05/14 05:20:32;;;;;;;;;3.25;3.25;;;;;19.82;34.92;98870.19;4978028;28;11536;-48
2021/05/14 05:22:57;;;;;;;;;4.25;4.25;;;;;19.77;35.22;98878.66;4998802;28;8827;-48
2021/05/14 05:25:23;;;;;;;;;4.00;4.00;;;;;19.75;34.97;98878.22;4997612;28;8905;-47
2021/05/14 05:27:48;;;;;;;;;5.25;5.25;;;;;19.64;35.08;98873.19;4995990;28;8802;-47
2021/05/14 05:30:16;;;;;;;;;4.50;4.50;;;;;19.72;35.09;98885.16;4996256;28;8802;-48
2021/05/14 05:32:41;;;;;;;;;4.00;4.00;;;;;19.71;35.10;98883.53;4996144;28;8809;-47
2021/05/14 05:35:07;;;;;;;;;4.25;4.25;;;;;19.72;34.97;98878.88;4997581;28;8822;-47
2021/05/14 05:37:33;;;;;;;;;4.80;4.80;;;;;19.69;35.00;98883.09;4997359;28;8797;-47
2021/05/14 05:39:58;;;;;;;;;3.75;3.75;;;;;19.70;34.88;98879.25;4998772;28;8789;-48
2021/05/14 05:42:23;;;;;;;;;4.00;4.00;;;;;19.69;35.06;98872.16;4988112;28;8830;-48
2021/05/14 05:44:49;;;;;;;;;5.00;4.50;;;;;19.68;34.88;98871.38;4980423;28;8806;-47
2021/05/14 05:47:14;;;;;;;;;3.50;3.50;;;;;19.80;35.17;98869.75;4979218;28;8830;-47
2021/05/14 05:49:39;;;;;;;;;5.00;5.00;;;;;20.00;34.77;98871.50;4977687;28;9085;-48
2021/05/14 05:52:05;;;;;;;;;4.50;4.50;;;;;19.80;34.99;98859.59;4977745;28;8868;-47
2021/05/14 05:54:31;;;;;;;;;4.00;4.00;;;;;19.75;35.02;98867.25;4983641;28;8888;-47
2021/05/14 05:56:57;;;;;;;;;3.50;3.25;;;;;19.73;35.01;98869.53;4995739;28;8778;-47
2021/05/14 05:59:24;;;;;;;;;3.60;3.60;;;;;19.70;35.13;98856.53;4995473;28;8804;-46
2021/05/14 06:01:49;;;;;;;;;4.20;4.20;;;;;19.69;34.99;98861.22;4998839;28;8804;-48
2021/05/14 06:04:15;;;;;;;;;3.25;3.25;;;;;19.67;35.04;98864.28;4996595;28;8814;-48
2021/05/14 06:06:40;;;;;;;;;4.00;4.00;;;;;19.67;35.08;98871.72;4997186;28;8799;-48
2021/05/14 06:09:06;;;;;;;;;3.25;3.25;;;;;19.65;35.09;98872.06;4997475;28;8922;-47
2021/05/14 06:11:31;;;;;;;;;3.00;3.00;;;;;19.65;35.04;98866.59;4993147;28;8816;-47
2021/05/14 06:13:56;;;;;;;;;4.50;4.00;;;;;19.65;34.94;98874.78;5002386;28;8800;-48
2021/05/14 06:16:22;;;;;;;;;4.00;4.00;;;;;19.64;34.98;98873.19;4997340;28;8852;-46
2021/05/14 06:18:56;;;;;;;;;3.75;3.75;;;;;19.62;35.12;98883.69;4997127;28;8877;-47
2021/05/14 06:21:21;;;;;;;;;4.00;4.00;;;;;19.90;35.03;98879.41;4998869;28;8819;-47
2021/05/14 06:23:46;;;;;;;;;3.75;3.75;;;;;19.78;35.01;98866.56;5001229;28;9520;-48
2021/05/14 06:26:12;;;;;;;;;5.00;5.00;;;;;19.75;35.04;98894.63;5002010;28;8824;-47
2021/05/14 06:28:37;;;;;;;;;4.50;3.75;;;;;19.67;35.08;98871.72;4999659;28;8945;-47
2021/05/14 06:31:03;;;;;;;;;4.00;4.00;;;;;19.64;35.13;98881.41;5001103;28;8852;-48
2021/05/14 06:33:28;;;;;;;;;5.00;5.00;;;;;19.63;35.10;98893.50;4997630;28;8791;-48
2021/05/14 06:35:56;;;;;;;;;5.25;5.25;;;;;19.63;34.99;98893.50;4999359;28;8823;-48
2021/05/14 06:38:23;;;;;;;;;4.80;4.80;;;;;19.61;34.95;98897.72;5002617;28;8808;-47
2021/05/14 06:40:48;;;;;;;;;4.00;4.00;;;;;19.60;35.14;98894.19;5000572;28;8963;-47
2021/05/14 06:43:13;;;;;;;;;3.75;3.75;;;;;19.59;35.27;98895.31;5001052;28;9542;-47
2021/05/14 06:45:39;;;;;;;;;5.00;5.00;;;;;19.59;34.90;98887.13;4987977;28;9642;-48
2021/05/14 06:48:07;;;;;;;;;4.50;4.50;;;;;19.43;35.15;98869.84;4986583;28;8764;-47
2021/05/14 06:50:33;;;;;;;;;3.60;3.60;;;;;19.58;34.99;98893.75;5000098;28;8816;-47
2021/05/14 06:53:00;;;;;;;;;4.80;4.80;;;;;19.64;35.06;98892.34;5001063;28;8792;-48
2021/05/14 06:55:25;;;;;;;;;4.00;4.00;;;;;19.91;34.76;98892.75;5000710;28;8805;-47
2021/05/14 06:57:51;;;;;;;;;4.75;4.75;;;;;19.75;35.18;98894.63;4989260;28;8858;-48
2021/05/14 07:00:18;;;;;;;;;4.00;4.00;;;;;19.64;35.15;98897.81;4988888;28;8776;-47
2021/05/14 07:02:48;;;;;;;;;3.00;3.00;;;;;19.61;35.29;98893.06;4999017;28;8834;-47
2021/05/14 07:05:14;;;;;;;;;4.00;4.00;;;;;19.55;35.20;98893.63;5002183;28;8796;-47
2021/05/14 07:07:40;;;;;;;;;4.00;4.00;;;;;19.55;35.13;98902.63;4983470;28;8803;-48
2021/05/14 07:10:07;;;;;;;;;4.60;4.60;;;;;19.57;35.00;98905.03;4979887;28;8800;-48
2021/05/14 07:12:33;;;;;;;;;4.00;4.00;;;;;19.57;35.00;98907.75;4989207;28;8874;-47
2021/05/14 07:14:59;;;;;;;;;4.00;4.00;;;;;19.57;35.06;98905.03;4995197;28;8787;-47
2021/05/14 07:17:24;;;;;;;;;4.00;4.00;;;;;19.55;35.18;98902.63;4979025;28;8916;-47
2021/05/14 07:19:49;;;;;;;;;3.75;3.75;;;;;19.55;34.99;98899.91;4980372;28;8833;-47
2021/05/14 07:22:14;;;;;;;;;4.25;4.25;;;;;19.55;35.08;98907.31;4996221;28;8836;-48
2021/05/14 07:24:40;;;;;;;;;3.75;3.75;;;;;19.54;34.99;98903.78;4998551;28;8976;-48
2021/05/14 07:27:05;;;;;;;;;3.00;3.00;;;;;19.79;35.16;98903.75;4999549;28;8904;-47
2021/05/14 07:29:31;;;;;;;;;3.50;3.50;;;;;19.83;35.23;98894.47;4998436;28;8916;-47
2021/05/14 07:31:56;;;;;;;;;5.00;5.00;;;;;19.67;35.15;98896.34;5006026;28;8800;-50
2021/05/14 07:34:21;;;;;;;;;5.00;5.00;;;;;19.58;35.14;98899.22;4984029;28;8861;-48
2021/05/14 07:36:47;;;;;;;;;4.75;4.75;;;;;19.56;35.35;98893.31;4990992;28;8915;-47
2021/05/14 07:39:12;;;;;;;;;4.00;4.00;;;;;19.55;35.29;98902.63;4999471;28;8792;-48
2021/05/14 07:41:37;;;;;;;;;3.25;3.25;;;;;19.54;35.19;98892.03;4996280;28;8831;-47
2021/05/14 07:44:03;;;;;;;;;4.75;4.75;;;;;19.54;35.20;98898.31;4998706;28;8889;-47
2021/05/14 07:46:28;;;;;;;;;4.00;4.00;;;;;19.54;35.06;98902.97;4996254;28;8826;-47
2021/05/14 07:48:54;;;;;;;;;4.00;4.00;;;;;19.52;35.24;98897.84;4987954;28;8810;-47
2021/05/14 07:51:19;;;;;;;;;5.25;5.25;;;;;19.51;35.16;98888.06;4977582;28;8804;-48
2021/05/14 07:53:44;;;;;;;;;4.00;4.00;;;;;19.51;35.07;98888.06;4978195;28;8789;-47
2021/05/14 07:56:10;;;;;;;;;4.00;4.00;;;;;19.52;35.08;98886.91;4981622;28;8850;-47
2021/05/14 07:58:36;;;;;;;;;4.40;4.40;;;;;19.51;35.28;98890.81;4999012;28;8847;-47
2021/05/14 08:01:01;;;;;;;;;4.25;4.25;;;;;19.82;35.05;98886.63;4998047;28;8829;-48
2021/05/14 08:03:27;;;;;;;;;4.50;4.25;;;;;19.70;35.23;98898.38;5002862;28;8874;-47
2021/05/14 08:05:52;;;;;;;;;4.75;4.75;;;;;19.59;35.28;98891.78;4994934;28;8787;-48
2021/05/14 08:08:23;;;;;;;;;4.00;4.00;;;;;19.54;35.26;98884.66;5002573;28;9564;-48
2021/05/14 08:10:53;;;;;;;;;4.60;4.60;;;;;19.50;35.32;98889.19;4995510;28;9545;-48
2021/05/14 08:13:19;;;;;;;;;4.60;4.60;;;;;19.49;35.16;98884.88;4999784;28;8816;-47
2021/05/14 08:15:45;;;;;;;;;5.25;5.25;;;;;19.49;35.16;98887.63;4998153;28;8818;-47
2021/05/14 08:18:11;;;;;;;;;5.00;5.00;;;;;19.48;35.13;98888.75;4998988;28;8796;-47
2021/05/14 08:20:36;;;;;;;;;4.00;4.00;;;;;19.49;35.34;98895.81;4996562;28;8811;-47
2021/05/14 08:23:01;;;;;;;;;6.00;5.00;;;;;19.49;35.10;98893.88;4995791;28;8824;-48
2021/05/14 08:25:26;;;;;;;;;4.50;4.50;;;;;19.49;35.09;98891.16;4999298;28;8816;-48
2021/05/14 08:27:52;;;;;;;;;3.75;3.75;;;;;19.48;35.12;98897.75;5001427;28;8890;-47
2021/05/14 08:30:18;;;;;;;;;4.00;4.00;;;;;19.47;35.12;98901.63;4999211;28;8781;-47
2021/05/14 08:32:43;;;;;;;;;5.00;5.00;;;;;19.67;35.40;98891.66;4998367;28;8775;-47
2021/05/14 08:35:10;;;;;;;;;3.25;3.25;;;;;19.81;34.90;98887.78;4981872;28;8884;-47
2021/05/14 08:37:36;;;;;;;;;4.80;4.80;;;;;19.62;35.07;98891.13;4992371;28;8823;-47
2021/05/14 08:40:04;;;;;;;;;5.40;5.20;;;;;19.53;35.18;98891.25;4993297;28;8846;-47
2021/05/14 08:42:29;;;;;;;;;5.20;5.20;;;;;19.49;35.31;98893.88;4995336;28;8832;-48
2021/05/14 08:44:56;;;;;;;;;5.25;5.25;;;;;19.48;35.28;98892.28;4999385;28;8808;-47
2021/05/14 08:47:22;;;;;;;;;5.00;5.00;;;;;19.47;35.17;98896.16;4999926;28;8923;-47
2021/05/14 08:49:48;;;;;;;;;4.50;4.50;;;;;19.47;35.24;98900.81;4981578;28;8953;-47
2021/05/14 08:52:15;;;;;;;;;4.25;4.25;;;;;19.47;35.14;98903.56;4995310;28;8831;-48
2021/05/14 08:54:42;;;;;;;;;5.20;5.00;;;;;19.42;35.22;98899.16;4991918;28;11496;-47
2021/05/14 08:57:09;;;;;;;;;4.20;4.20;;;;;19.47;35.21;98907.09;4978925;28;8942;-48
2021/05/14 08:59:34;;;;;;;;;4.60;4.60;;;;;19.47;35.26;98911.75;4972824;28;9567;-48
2021/05/14 09:01:59;;;;;;;;;6.25;5.50;;;;;19.41;35.21;98891.28;5000178;28;8831;-48
2021/05/14 09:04:29;;;;;;;;;5.00;5.00;;;;;19.45;35.25;98906.66;4997963;28;8806;-47
2021/05/14 09:06:56;;;;;;;;;4.00;4.00;;;;;19.78;35.13;98910.34;4981631;28;8884;-48
2021/05/14 09:09:22;;;;;;;;;5.20;5.20;;;;;19.66;35.44;98911.97;4978198;28;8844;-48
2021/05/14 09:11:51;;;;;;;;;4.50;4.50;;;;;19.54;35.33;98911.19;4977122;28;8837;-47
2021/05/14 09:14:35;;;;;;;;;6.00;5.20;;;;;19.48;35.33;98902.44;4978076;28;8811;-47
2021/05/14 09:17:09;;;;;;;;;5.00;5.00;;;;;19.45;35.45;98914.06;4978974;28;8925;-48
2021/05/14 09:19:37;;;;;;;;;5.00;5.00;;;;;19.45;35.31;98908.59;4999110;28;8808;-47
2021/05/14 09:22:09;;;;;;;;;7.00;6.00;;;;;19.44;35.34;98896.06;4990597;28;8786;-48
2021/05/14 09:24:35;;;;;;;;;5.80;5.80;;;;;19.43;35.31;98894.47;4979104;28;9424;-47
2021/05/14 09:27:15;;;;;;;;;7.00;6.00;;;;;19.32;35.21;98876.94;4980434;28;8907;-47
2021/05/14 09:29:41;;;;;;;;;5.40;4.80;;;;;19.42;35.50;98898.34;4976695;28;8810;-47
2021/05/14 09:32:26;;;;;;;;;4.00;4.00;;;;;19.42;35.28;98892.88;4982248;28;8804;-47
2021/05/14 09:34:54;;;;;;;;;5.00;4.00;;;;;19.43;35.29;98886.25;4977750;28;9546;-47
2021/05/14 09:37:20;;;;;;;;;5.00;5.00;;;;;19.42;35.30;98887.41;4992341;28;8878;-48
2021/05/14 09:39:46;;;;;;;;;5.00;5.00;;;;;19.70;35.10;98883.88;4986648;28;8823;-48
2021/05/14 09:42:12;;;;;;;;;4.80;4.80;;;;;19.63;35.41;98890.78;4983834;28;8894;-48
2021/05/14 09:44:37;;;;;;;;;5.00;5.00;;;;;19.51;35.33;98884.50;4995963;28;8866;-48
2021/05/14 09:47:03;;;;;;;;;5.00;5.00;;;;;19.44;35.51;98885.91;4978889;28;8943;-47
2021/05/14 09:49:29;;;;;;;;;4.00;4.00;;;;;19.41;35.32;98875.66;4994305;28;9480;-47
2021/05/14 09:51:58;;;;;;;;;5.00;5.00;;;;;19.40;35.44;98885.03;4996274;28;8851;-47
2021/05/14 09:54:31;;;;;;;;;5.00;5.00;;;;;19.68;36.19;98878.75;4986841;28;8856;-50
2021/05/14 09:59:43;;;;;;;;;4.20;4.20;;;;;20.92;33.52;98876.16;4992134;28;8819;-51
2021/05/14 10:02:20;;;;;;;;;4.40;4.40;;;;;21.19;32.51;98877.16;4978207;28;8818;-50
2021/05/14 10:04:46;;;;;;;;;4.00;4.00;;;;;21.33;31.27;98860.22;4974361;28;8791;-52
2021/05/14 10:07:12;;;;;;;;;5.00;5.00;;;;;21.40;30.43;98863.13;4989213;28;8787;-49
2021/05/14 10:09:39;;;;;;;;;5.00;5.00;;;;;21.53;30.02;98859.13;4998404;28;8931;-48
2021/05/14 10:12:07;;;;;;;;;5.00;5.00;;;;;21.63;29.61;98856.94;4996434;28;8794;-49
2021/05/14 10:14:33;;;;;;;;;5.20;5.00;;;;;21.74;29.43;98855.22;4996129;28;8796;-48
2021/05/14 10:17:00;;;;;;;;;5.00;5.00;;;;;21.75;29.32;98856.81;4973107;28;8928;-48
2021/05/14 10:19:27;;;;;;;;;5.00;5.00;;;;;21.73;29.35;98850.88;4990086;28;8804;-50
2021/05/14 10:21:52;;;;;;;;;5.00;5.00;;;;;21.73;29.39;98850.88;4995894;28;8788;-48
2021/05/14 10:24:47;;;;;;;;;5.25;5.25;;;;;21.76;28.95;98855.66;4997323;28;8823;-52
2021/05/14 10:27:25;;;;;;;;;5.20;5.20;;;;;21.86;28.76;98854.25;4995448;28;8968;-49
2021/05/14 10:29:53;;;;;;;;;4.80;4.80;;;;;21.90;28.58;98853.19;4992648;28;8795;-50
2021/05/14 10:32:43;;;;;;;;;6.00;6.00;;;;;22.02;28.38;98856.91;4975763;28;9535;-50
2021/05/14 10:35:14;;;;;;;;;5.00;5.00;;;;;22.08;28.78;98855.47;4998438;28;9601;-47
2021/05/14 10:38:02;;;;;;;;;6.00;6.00;;;;;21.77;29.29;98861.94;4978283;28;8821;-46
2021/05/14 10:42:56;;;;;;;;;4.80;4.80;;;;;22.35;28.47;98847.34;4975929;28;8791;-49
2021/05/14 10:45:39;;;;;;;;;6.60;5.20;;;;;22.97;26.99;98847.94;4974141;28;8797;-50
2021/05/14 10:48:16;;;;;;;;;5.00;5.00;;;;;23.23;26.51;98840.84;4980554;28;9703;-48
2021/05/14 10:50:43;;;;;;;;;5.00;5.00;;;;;23.42;25.60;98843.44;4983498;28;8818;-48
2021/05/14 10:53:17;;;;;;;;;6.60;6.00;;;;;23.59;25.08;98841.31;4999737;28;8880;-49
2021/05/14 10:55:44;;;;;;;;;6.00;6.00;;;;;23.71;24.65;98843.81;4977963;28;8949;-48
2021/05/14 10:58:44;;;;;;;;;4.20;4.20;;;;;23.77;24.75;98839.53;4991975;28;8820;-48
2021/05/14 11:01:58;;;;;;;;;5.20;5.20;;;;;23.74;24.62;98831.25;4981716;28;8795;-45
2021/05/14 11:04:24;;;;;;;;;7.00;7.00;;;;;23.87;24.35;98837.31;4988182;28;8816;-48
2021/05/14 11:06:51;;;;;;;;;6.75;6.00;;;;;23.89;24.28;98835.00;4998877;28;8820;-49
2021/05/14 11:09:18;;;;;;;;;5.40;5.40;;;;;23.81;24.45;98837.63;4998779;28;8801;-48
2021/05/14 11:12:02;;;;;;;;;5.60;5.60;;;;;23.90;24.37;98839.31;5000577;28;8776;-50
2021/05/14 11:14:48;;;;;;;;;5.80;5.80;;;;;24.09;23.38;98836.38;4997315;28;8982;-46
2021/05/14 11:17:15;;;;;;;;;6.00;6.00;;;;;24.04;23.68;98838.66;4981242;28;9020;-50
2021/05/14 11:19:51;;;;;;;;;6.00;6.00;;;;;24.09;23.54;98833.59;4981383;28;8988;-46
2021/05/14 11:22:27;;;;;;;;;6.40;6.40;;;;;24.29;23.32;98830.63;4994263;28;8845;-44
2021/05/14 11:24:53;;;;;;;;;7.00;7.00;;;;;24.44;23.00;98831.56;4989074;28;8787;-46
2021/05/14 11:27:26;;;;;;;;;6.20;6.20;;;;;24.28;23.52;98818.03;4975088;28;8783;-42
2021/05/14 11:29:54;;;;;;;;;5.60;5.60;;;;;24.31;23.34;98831.84;4980819;28;8794;-44
2021/05/14 11:32:22;;;;;;;;;4.60;4.60;;;;;24.81;22.63;98828.72;4979282;28;11684;-43
2021/05/14 11:35:05;;;;;;;;;7.00;7.00;;;;;24.75;22.88;98827.50;4979055;28;8783;-44
2021/05/14 11:37:31;;;;;;;;;5.80;5.80;;;;;24.58;22.42;98819.91;4978542;28;9592;-49
2021/05/14 11:40:04;;;;;;;;;5.60;5.20;;;;;24.32;22.58;98816.88;4978485;28;8798;-51
2021/05/14 11:42:30;;;;;;;;;6.80;6.00;;;;;24.41;22.36;98815.78;4988139;28;8776;-51
2021/05/14 11:44:58;;;;;;;;;7.00;7.00;;;;;24.51;21.47;98818.63;4994472;28;8787;-50
2021/05/14 11:47:24;;;;;;;;;6.60;6.60;;;;;24.35;22.01;98818.09;4981107;28;8855;-46
2021/05/14 11:49:49;;;;;;;;;4.20;4.20;;;;;24.41;22.04;98783.50;5002537;28;8788;-49